sensor_id;sensor_type;location;lat;lon;timestamp;pressure;altitude;pressure_sealevel;temperature;humidity
1736;BME280;865;53.672;10.250;2023-05-29T00:01:59;101844.38;;;11.10;100.00
1736;BME280;865;53.672;10.250;2023-05-29T00:04:25;101845.31;;;10.95;100.00
1736;BME280;865;53.672;10.250;2023-05-29T00:06:52;101838.34;;;10.95;100.00
1736;BME280;865;53.672;10.250;2023-05-29T00:09:18;101840.91;;;11.02;100.00
1736;BME280;865;53.672;10.250;2023-05-29T00:11:45;101860.97;;;10.98;100.00
1736;BME280;865;53.672;10.250;2023-05-29T00:14:17;101857.47;;;10.98;100.00
1736;BME280;865;53.672;10.250;2023-05-29T00:16:46;101858.38;;;10.87;100.00
1736;BME280;865;53.672;10.250;2023-05-29T00:19:13;101854.88;;;10.82;100.00
1736;BME280;865;53.672;10.250;2023-05-29T00:21:40;101861.00;;;10.84;100.00
1736;BME280;865;53.672;10.250;2023-05-29T00:24:06;101861.91;;;10.65;100.00
1736;BME280;865;53.672;10.250;2023-05-29T00:26:33;101871.47;;;10.67;100.00
1736;BME280;865;53.672;10.250;2023-05-29T00:28:59;101866.28;;;10.44;100.00
1736;BME280;865;53.672;10.250;2023-05-29T00:31:26;101865.41;;;10.52;100.00
1736;BME280;865;53.672;10.250;2023-05-29T00:33:52;101872.38;;;10.48;100.00
1736;BME280;865;53.672;10.250;2023-05-29T00:36:19;101874.94;;;10.69;100.00
1736;BME280;865;53.672;10.250;2023-05-29T00:38:45;101875.84;;;10.44;100.00
1736;BME280;865;53.672;10.250;2023-05-29T00:41:15;101880.22;;;10.42;100.00
1736;BME280;865;53.672;10.250;2023-05-29T00:43:42;101888.03;;;10.37;100.00
1736;BME280;865;53.672;10.250;2023-05-29T00:46:12;101886.28;;;10.32;100.00
1736;BME280;865;53.672;10.250;2023-05-29T00:48:40;101895.88;;;10.30;100.00
1736;BME280;865;53.672;10.250;2023-05-29T00:51:09;101900.22;;;10.35;100.00
1736;BME280;865;53.672;10.250;2023-05-29T00:53:38;101901.91;;;10.21;100.00
1736;BME280;865;53.672;10.250;2023-05-29T00:56:05;101903.63;;;10.25;100.00
1736;BME280;865;53.672;10.250;2023-05-29T00:58:33;101902.75;;;10.20;100.00
1736;BME280;865;53.672;10.250;2023-05-29T01:01:01;101909.72;;;9.99;100.00
1736;BME280;865;53.672;10.250;2023-05-29T01:03:30;101899.22;;;9.81;100.00
1736;BME280;865;53.672;10.250;2023-05-29T01:05:58;101908.75;;;9.68;100.00
1736;BME280;865;53.672;10.250;2023-05-29T01:08:25;101901.78;;;9.63;100.00
1736;BME280;865;53.672;10.250;2023-05-29T01:10:56;101904.41;;;9.58;100.00
1736;BME280;865;53.672;10.250;2023-05-29T01:13:29;101913.94;;;9.57;100.00
1736;BME280;865;53.672;10.250;2023-05-29T01:22:05;101907.84;;;9.52;100.00
1736;BME280;865;53.672;10.250;2023-05-29T01:24:49;101909.56;;;9.47;100.00
1736;BME280;865;53.672;10.250;2023-05-29T01:27:21;101906.06;;;9.39;100.00
1736;BME280;865;53.672;10.250;2023-05-29T01:29:49;101914.72;;;9.33;100.00
1736;BME280;865;53.672;10.250;2023-05-29T01:32:17;101909.44;;;9.18;100.00
1736;BME280;865;53.672;10.250;2023-05-29T01:34:44;101910.28;;;9.12;100.00
1736;BME280;865;53.672;10.250;2023-05-29T01:37:10;101909.41;;;9.15;100.00
1736;BME280;865;53.672;10.250;2023-05-29T01:39:37;101912.91;;;9.14;100.00
1736;BME280;865;53.672;10.250;2023-05-29T01:42:04;101918.09;;;9.11;100.00
1736;BME280;865;53.672;10.250;2023-05-29T01:44:31;101912.03;;;9.10;100.00
1736;BME280;865;53.672;10.250;2023-05-29T01:46:57;101922.31;;;8.95;100.00
1736;BME280;865;53.672;10.250;2023-05-29T01:49:24;101924.03;;;8.90;100.00
1736;BME280;865;53.672;10.250;2023-05-29T01:51:52;101920.56;;;8.88;100.00
1736;BME280;865;53.672;10.250;2023-05-29T01:54:18;101920.34;;;8.59;100.00
1736;BME280;865;53.672;10.250;2023-05-29T01:56:45;101921.16;;;8.53;100.00
1736;BME280;865;53.672;10.250;2023-05-29T01:59:13;101931.53;;;8.47;100.00
1736;BME280;865;53.672;10.250;2023-05-29T02:01:39;101923.66;;;8.41;100.00
1736;BME280;865;53.672;10.250;2023-05-29T02:04:06;101922.69;;;8.33;100.00
1736;BME280;865;53.672;10.250;2023-05-29T02:06:33;101923.53;;;8.29;100.00
1736;BME280;865;53.672;10.250;2023-05-29T02:09:00;101937.31;;;8.18;100.00
1736;BME280;865;53.672;10.250;2023-05-29T02:11:27;101932.13;;;8.20;100.00
1736;BME280;865;53.672;10.250;2023-05-29T02:13:53;101930.22;;;8.01;100.00
1736;BME280;865;53.672;10.250;2023-05-29T02:16:20;101920.78;;;8.10;100.00
1736;BME280;865;53.672;10.250;2023-05-29T02:18:47;101922.47;;;8.07;100.00
1736;BME280;865;53.672;10.250;2023-05-29T02:21:13;101916.34;;;8.00;100.00
1736;BME280;865;53.672;10.250;2023-05-29T02:23:39;101925.13;;;8.14;100.00
1736;BME280;865;53.672;10.250;2023-05-29T02:26:06;101927.59;;;7.97;100.00
1736;BME280;865;53.672;10.250;2023-05-29T02:28:32;101928.41;;;7.92;100.00
1736;BME280;865;53.672;10.250;2023-05-29T02:30:59;101923.97;;;7.85;100.00
1736;BME280;865;53.672;10.250;2023-05-29T02:33:25;101928.56;;;8.10;100.00
1736;BME280;865;53.672;10.250;2023-05-29T02:35:52;101927.59;;;7.99;100.00
1736;BME280;865;53.672;10.250;2023-05-29T02:38:18;101920.63;;;7.95;100.00
1736;BME280;865;53.672;10.250;2023-05-29T02:40:45;101917.91;;;7.83;100.00
1736;BME280;865;53.672;10.250;2023-05-29T02:43:12;101913.69;;;7.95;100.00
1736;BME280;865;53.672;10.250;2023-05-29T02:45:39;101907.59;;;7.93;100.00
1736;BME280;865;53.672;10.250;2023-05-29T02:48:05;101909.31;;;7.90;100.00
1736;BME280;865;53.672;10.250;2023-05-29T02:50:32;101908.94;;;7.53;100.00
1736;BME280;865;53.672;10.250;2023-05-29T02:52:59;101920.91;;;7.42;100.00
1736;BME280;865;53.672;10.250;2023-05-29T02:55:25;101926.13;;;7.46;100.00
1736;BME280;865;53.672;10.250;2023-05-29T02:57:51;101926.91;;;7.39;100.00
1736;BME280;865;53.672;10.250;2023-05-29T03:00:21;101926.78;;;7.28;100.00
1736;BME280;865;53.672;10.250;2023-05-29T03:02:47;101926.69;;;7.22;100.00
1736;BME280;865;53.672;10.250;2023-05-29T03:05:14;101935.25;;;7.15;100.00
1736;BME280;865;53.672;10.250;2023-05-29T03:07:40;101942.19;;;7.16;100.00
1736;BME280;865;53.672;10.250;2023-05-29T03:10:08;101935.31;;;7.18;100.00
1736;BME280;865;53.672;10.250;2023-05-29T03:12:36;101930.00;;;7.11;100.00
1736;BME280;865;53.672;10.250;2023-05-29T03:15:03;101934.31;;;7.10;100.00
1736;BME280;865;53.672;10.250;2023-05-29T03:17:29;101936.88;;;7.05;100.00
1736;BME280;865;53.672;10.250;2023-05-29T03:19:56;101931.47;;;6.90;100.00
1736;BME280;865;53.672;10.250;2023-05-29T03:22:23;101927.22;;;6.97;100.00
1736;BME280;865;53.672;10.250;2023-05-29T03:24:50;101922.78;;;6.90;100.00
1736;BME280;865;53.672;10.250;2023-05-29T03:27:16;101926.22;;;6.87;100.00
1736;BME280;865;53.672;10.250;2023-05-29T03:29:42;101926.72;;;7.24;100.00
1736;BME280;865;53.672;10.250;2023-05-29T03:32:09;101934.31;;;7.10;100.00
1736;BME280;865;53.672;10.250;2023-05-29T03:34:35;101935.94;;;7.02;100.00
1736;BME280;865;53.672;10.250;2023-05-29T03:37:02;101936.13;;;7.14;100.00
1736;BME280;865;53.672;10.250;2023-05-29T03:39:29;101935.06;;;7.01;100.00
1736;BME280;865;53.672;10.250;2023-05-29T03:41:56;101941.31;;;7.14;100.00
1736;BME280;865;53.672;10.250;2023-05-29T03:44:22;101936.19;;;7.20;100.00
1736;BME280;865;53.672;10.250;2023-05-29T03:46:49;101937.81;;;7.12;100.00
1736;BME280;865;53.672;10.250;2023-05-29T03:49:16;101931.69;;;7.05;100.00
1736;BME280;865;53.672;10.250;2023-05-29T03:51:42;101931.72;;;7.10;100.00
1736;BME280;865;53.672;10.250;2023-05-29T03:54:09;101937.72;;;7.07;100.00
1736;BME280;865;53.672;10.250;2023-05-29T03:56:36;101945.66;;;7.17;100.00
1736;BME280;865;53.672;10.250;2023-05-29T03:59:02;101941.41;;;7.22;100.00
1736;BME280;865;53.672;10.250;2023-05-29T04:01:29;101940.44;;;7.15;100.00
1736;BME280;865;53.672;10.250;2023-05-29T04:03:55;101941.28;;;7.11;100.00
1736;BME280;865;53.672;10.250;2023-05-29T04:06:22;101946.75;;;7.33;100.00
1736;BME280;865;53.672;10.250;2023-05-29T04:08:49;101943.16;;;7.24;100.00
1736;BME280;865;53.672;10.250;2023-05-29T04:11:16;101946.41;;;7.08;100.00
1736;BME280;865;53.672;10.250;2023-05-29T04:13:42;101949.09;;;7.16;100.00
1736;BME280;865;53.672;10.250;2023-05-29T04:16:09;101951.03;;;7.29;100.00
1736;BME280;865;53.672;10.250;2023-05-29T04:18:35;101951.94;;;7.34;100.00
1736;BME280;865;53.672;10.250;2023-05-29T04:21:02;101963.94;;;7.24;100.00
1736;BME280;865;53.672;10.250;2023-05-29T04:23:28;101969.06;;;7.20;100.00
1736;BME280;865;53.672;10.250;2023-05-29T04:25:55;101973.56;;;7.33;100.00
1736;BME280;865;53.672;10.250;2023-05-29T04:28:21;101966.59;;;7.30;100.00
1736;BME280;865;53.672;10.250;2023-05-29T04:30:47;101961.28;;;7.20;100.00
1736;BME280;865;53.672;10.250;2023-05-29T04:33:14;101962.16;;;7.20;100.00
1736;BME280;865;53.672;10.250;2023-05-29T04:35:41;101969.34;;;7.43;100.00
1736;BME280;865;53.672;10.250;2023-05-29T04:38:09;101966.59;;;7.29;100.00
1736;BME280;865;53.672;10.250;2023-05-29T04:40:36;101964.22;;;7.46;100.00
1736;BME280;865;53.672;10.250;2023-05-29T04:43:02;101961.84;;;7.63;100.00
1736;BME280;865;53.672;10.250;2023-05-29T04:45:31;101975.16;;;7.92;100.00
1736;BME280;865;53.672;10.250;2023-05-29T04:47:57;101971.66;;;7.90;100.00
1736;BME280;865;53.672;10.250;2023-05-29T04:50:24;101976.03;;;7.92;100.00
1736;BME280;865;53.672;10.250;2023-05-29T04:52:51;101975.06;;;7.84;100.00
1736;BME280;865;53.672;10.250;2023-05-29T04:55:17;101976.13;;;8.02;100.00
1736;BME280;865;53.672;10.250;2023-05-29T04:57:44;101981.25;;;7.95;100.00
1736;BME280;865;53.672;10.250;2023-05-29T05:00:10;101980.59;;;8.13;100.00
1736;BME280;865;53.672;10.250;2023-05-29T05:02:44;101990.31;;;8.34;100.00
1736;BME280;865;53.672;10.250;2023-05-29T05:05:11;101992.09;;;8.38;100.00
1736;BME280;865;53.672;10.250;2023-05-29T05:07:38;101991.94;;;8.21;100.00
1736;BME280;865;53.672;10.250;2023-05-29T05:10:05;101999.13;;;8.47;100.00
1736;BME280;865;53.672;10.250;2023-05-29T05:12:32;101999.81;;;8.32;100.00
1736;BME280;865;53.672;10.250;2023-05-29T05:14:58;102001.94;;;8.69;100.00
1736;BME280;865;53.672;10.250;2023-05-29T05:17:25;102003.13;;;9.12;100.00
1736;BME280;865;53.672;10.250;2023-05-29T05:19:52;102005.72;;;9.10;100.00
1736;BME280;865;53.672;10.250;2023-05-29T05:22:19;102003.22;;;9.30;100.00
1736;BME280;865;53.672;10.250;2023-05-29T05:24:46;101998.03;;;9.33;100.00
1736;BME280;865;53.672;10.250;2023-05-29T05:27:13;101993.50;;;9.03;100.00
1736;BME280;865;53.672;10.250;2023-05-29T05:29:39;101989.06;;;8.88;100.00
1736;BME280;865;53.672;10.250;2023-05-29T05:32:06;101995.31;;;9.10;100.00
1736;BME280;865;53.672;10.250;2023-05-29T05:34:33;102003.00;;;8.98;100.00
1736;BME280;865;53.672;10.250;2023-05-29T05:36:59;101997.00;;;9.05;100.00
1736;BME280;865;53.672;10.250;2023-05-29T05:39:26;101996.97;;;8.99;100.00
1736;BME280;865;53.672;10.250;2023-05-29T05:41:52;102003.22;;;9.26;100.00
1736;BME280;865;53.672;10.250;2023-05-29T05:44:19;101997.25;;;9.51;100.00
1736;BME280;865;53.672;10.250;2023-05-29T05:46:45;101986.13;;;9.83;100.00
1736;BME280;865;53.672;10.250;2023-05-29T05:49:12;101992.97;;;9.59;100.00
1736;BME280;865;53.672;10.250;2023-05-29T05:51:38;101992.97;;;9.55;100.00
1736;BME280;865;53.672;10.250;2023-05-29T05:54:05;101986.16;;;9.95;100.00
1736;BME280;865;53.672;10.250;2023-05-29T05:56:31;101985.34;;;10.18;100.00
1736;BME280;865;53.672;10.250;2023-05-29T05:58:57;101991.41;;;10.11;100.00
1736;BME280;865;53.672;10.250;2023-05-29T06:01:24;101994.91;;;10.25;100.00
1736;BME280;865;53.672;10.250;2023-05-29T06:03:50;101990.47;;;9.93;100.00
1736;BME280;865;53.672;10.250;2023-05-29T06:06:17;101997.44;;;9.85;100.00
1736;BME280;865;53.672;10.250;2023-05-29T06:08:44;102001.66;;;9.58;100.00
1736;BME280;865;53.672;10.250;2023-05-29T06:11:11;102000.00;;;9.80;100.00
1736;BME280;865;53.672;10.250;2023-05-29T06:13:38;102010.41;;;9.77;100.00
1736;BME280;865;53.672;10.250;2023-05-29T06:16:05;102011.25;;;9.72;100.00
1736;BME280;865;53.672;10.250;2023-05-29T06:18:32;102006.06;;;9.75;100.00
1736;BME280;865;53.672;10.250;2023-05-29T06:20:58;101993.88;;;9.65;100.00
1736;BME280;865;53.672;10.250;2023-05-29T06:23:25;101993.13;;;9.99;100.00
1736;BME280;865;53.672;10.250;2023-05-29T06:25:51;101999.19;;;9.98;100.00
1736;BME280;865;53.672;10.250;2023-05-29T06:28:18;102000.97;;;10.09;100.00
1736;BME280;865;53.672;10.250;2023-05-29T06:30:44;101988.88;;;10.32;100.00
1736;BME280;865;53.672;10.250;2023-05-29T06:33:12;101982.81;;;10.48;100.00
1736;BME280;865;53.672;10.250;2023-05-29T06:35:38;101989.75;;;10.56;100.00
1736;BME280;865;53.672;10.250;2023-05-29T06:38:05;101999.31;;;10.77;100.00
1736;BME280;865;53.672;10.250;2023-05-29T06:40:32;102001.06;;;11.04;100.00
1736;BME280;865;53.672;10.250;2023-05-29T06:42:58;102003.69;;;10.76;100.00
1736;BME280;865;53.672;10.250;2023-05-29T06:45:24;101990.59;;;10.41;100.00
1736;BME280;865;53.672;10.250;2023-05-29T06:47:51;101996.69;;;10.31;100.00
1736;BME280;865;53.672;10.250;2023-05-29T06:50:18;101998.47;;;10.56;100.00
1736;BME280;865;53.672;10.250;2023-05-29T06:52:44;102000.19;;;10.42;100.00
1736;BME280;865;53.672;10.250;2023-05-29T06:55:11;102001.06;;;10.42;100.00
1736;BME280;865;53.672;10.250;2023-05-29T06:57:37;101999.25;;;10.26;100.00
1736;BME280;865;53.672;10.250;2023-05-29T07:00:05;101996.63;;;10.09;100.00
1736;BME280;865;53.672;10.250;2023-05-29T07:02:32;102000.13;;;10.17;100.00
1736;BME280;865;53.672;10.250;2023-05-29T07:04:58;102009.78;;;10.51;100.00
1736;BME280;865;53.672;10.250;2023-05-29T07:07:26;102013.25;;;10.42;100.00
1736;BME280;865;53.672;10.250;2023-05-29T07:09:52;102016.72;;;10.48;100.00
1736;BME280;865;53.672;10.250;2023-05-29T07:12:22;102009.75;;;10.73;100.00
1736;BME280;865;53.672;10.250;2023-05-29T07:14:49;102002.81;;;10.80;100.00
1736;BME280;865;53.672;10.250;2023-05-29T07:17:15;102016.66;;;11.36;100.00
1736;BME280;865;53.672;10.250;2023-05-29T07:19:42;102023.69;;;10.92;100.00
1736;BME280;865;53.672;10.250;2023-05-29T07:22:09;102022.75;;;11.27;100.00
1736;BME280;865;53.672;10.250;2023-05-29T07:24:35;102026.13;;;11.74;100.00
1736;BME280;865;53.672;10.250;2023-05-29T07:27:01;102028.84;;;11.41;100.00
1736;BME280;865;53.672;10.250;2023-05-29T07:29:28;102026.09;;;11.86;100.00
1736;BME280;865;53.672;10.250;2023-05-29T07:31:54;102026.00;;;12.09;100.00
1736;BME280;865;53.672;10.250;2023-05-29T07:34:21;102025.09;;;12.18;100.00
1736;BME280;865;53.672;10.250;2023-05-29T07:37:00;102032.19;;;11.96;100.00
1736;BME280;865;53.672;10.250;2023-05-29T07:39:27;102023.19;;;12.41;100.00
1736;BME280;865;53.672;10.250;2023-05-29T07:41:53;102025.13;;;12.08;100.00
1736;BME280;865;53.672;10.250;2023-05-29T07:44:20;102031.38;;;11.68;100.00
1736;BME280;865;53.672;10.250;2023-05-29T07:46:47;102023.56;;;11.57;100.00
1736;BME280;865;53.672;10.250;2023-05-29T07:49:14;102028.63;;;12.04;100.00
1736;BME280;865;53.672;10.250;2023-05-29T07:51:41;102027.03;;;11.70;100.00
1736;BME280;865;53.672;10.250;2023-05-29T07:54:08;102019.09;;;11.97;100.00
1736;BME280;865;53.672;10.250;2023-05-29T07:56:34;102024.78;;;12.61;100.00
1736;BME280;865;53.672;10.250;2023-05-29T07:59:00;102025.91;;;12.29;100.00
1736;BME280;865;53.672;10.250;2023-05-29T08:01:27;102021.59;;;12.20;100.00
1736;BME280;865;53.672;10.250;2023-05-29T08:03:53;102017.28;;;12.08;100.00
1736;BME280;865;53.672;10.250;2023-05-29T08:06:20;102022.56;;;12.01;100.00
1736;BME280;865;53.672;10.250;2023-05-29T08:08:47;102019.78;;;12.25;100.00
1736;BME280;865;53.672;10.250;2023-05-29T08:11:14;102031.81;;;12.54;100.00
1736;BME280;865;53.672;10.250;2023-05-29T08:13:40;102038.66;;;12.76;100.00
1736;BME280;865;53.672;10.250;2023-05-29T08:16:07;102027.44;;;12.54;100.00
1736;BME280;865;53.672;10.250;2023-05-29T08:18:34;102033.88;;;12.06;100.00
1736;BME280;865;53.672;10.250;2023-05-29T08:21:00;102028.31;;;12.61;100.00
1736;BME280;865;53.672;10.250;2023-05-29T08:23:27;102032.53;;;12.77;100.00
1736;BME280;865;53.672;10.250;2023-05-29T08:25:53;102024.19;;;12.23;100.00
1736;BME280;865;53.672;10.250;2023-05-29T08:28:20;102022.22;;;12.56;100.00
1736;BME280;865;53.672;10.250;2023-05-29T08:30:47;102020.41;;;12.66;100.00
1736;BME280;865;53.672;10.250;2023-05-29T08:33:14;102028.19;;;12.76;100.00
1736;BME280;865;53.672;10.250;2023-05-29T08:35:40;102028.22;;;12.69;100.00
1736;BME280;865;53.672;10.250;2023-05-29T08:38:07;102024.25;;;13.25;100.00
1736;BME280;865;53.672;10.250;2023-05-29T08:40:33;102019.75;;;13.39;100.00
1736;BME280;865;53.672;10.250;2023-05-29T08:43:08;102016.91;;;13.56;100.00
1736;BME280;865;53.672;10.250;2023-05-29T08:45:42;102025.53;;;13.67;100.00
1736;BME280;865;53.672;10.250;2023-05-29T08:48:09;102028.56;;;13.29;100.00
1736;BME280;865;53.672;10.250;2023-05-29T08:50:43;102031.03;;;13.46;100.00
1736;BME280;865;53.672;10.250;2023-05-29T08:53:13;102027.13;;;13.81;100.00
1736;BME280;865;53.672;10.250;2023-05-29T08:55:40;102037.13;;;13.48;100.00
1736;BME280;865;53.672;10.250;2023-05-29T08:58:07;102034.41;;;13.57;100.00
1736;BME280;865;53.672;10.250;2023-05-29T09:00:36;102036.72;;;13.82;100.00
1736;BME280;865;53.672;10.250;2023-05-29T09:03:02;102034.84;;;13.93;100.00
1736;BME280;865;53.672;10.250;2023-05-29T09:05:29;102035.97;;;14.39;100.00
1736;BME280;865;53.672;10.250;2023-05-29T09:07:56;102040.56;;;14.23;100.00
1736;BME280;865;53.672;10.250;2023-05-29T09:10:23;102030.63;;;13.80;100.00
1736;BME280;865;53.672;10.250;2023-05-29T09:12:51;102034.34;;;14.30;100.00
1736;BME280;865;53.672;10.250;2023-05-29T09:15:20;102031.72;;;14.30;100.00
1736;BME280;865;53.672;10.250;2023-05-29T09:17:55;102035.50;;;14.71;100.00
1736;BME280;865;53.672;10.250;2023-05-29T09:20:22;102041.91;;;14.53;100.00
1736;BME280;865;53.672;10.250;2023-05-29T09:22:58;102045.88;;;14.18;100.00
1736;BME280;865;53.672;10.250;2023-05-29T09:25:27;102041.56;;;14.14;100.00
1736;BME280;865;53.672;10.250;2023-05-29T09:28:05;102053.00;;;14.08;100.00
1736;BME280;865;53.672;10.250;2023-05-29T09:30:53;102037.13;;;14.19;100.00
1736;BME280;865;53.672;10.250;2023-05-29T09:33:20;102032.88;;;14.69;100.00
1736;BME280;865;53.672;10.250;2023-05-29T09:35:48;102036.19;;;14.82;100.00
1736;BME280;865;53.672;10.250;2023-05-29T09:38:18;102040.75;;;14.72;100.00
1736;BME280;865;53.672;10.250;2023-05-29T09:41:04;102041.56;;;15.27;100.00
1736;BME280;865;53.672;10.250;2023-05-29T09:43:31;102040.13;;;15.08;100.00
1736;BME280;865;53.672;10.250;2023-05-29T09:46:00;102032.34;;;15.01;100.00
1736;BME280;865;53.672;10.250;2023-05-29T09:48:29;102031.84;;;15.31;100.00
1736;BME280;865;53.672;10.250;2023-05-29T09:50:56;102041.38;;;15.38;100.00
1736;BME280;865;53.672;10.250;2023-05-29T09:53:25;102037.72;;;14.40;100.00
1736;BME280;865;53.672;10.250;2023-05-29T09:55:53;102023.94;;;14.81;100.00
1736;BME280;865;53.672;10.250;2023-05-29T09:58:22;102031.00;;;15.28;100.00
1736;BME280;865;53.672;10.250;2023-05-29T10:00:50;102028.72;;;15.55;94.59
1736;BME280;865;53.672;10.250;2023-05-29T10:03:17;102023.22;;;15.69;98.90
1736;BME280;865;53.672;10.250;2023-05-29T10:05:48;102026.66;;;15.72;93.38
1736;BME280;865;53.672;10.250;2023-05-29T10:08:18;102021.69;;;15.57;90.99
1736;BME280;865;53.672;10.250;2023-05-29T10:10:53;102021.59;;;16.05;98.90
1736;BME280;865;53.672;10.250;2023-05-29T10:13:22;102026.22;;;15.94;87.15
1736;BME280;865;53.672;10.250;2023-05-29T10:15:51;102024.94;;;16.12;92.08
1736;BME280;865;53.672;10.250;2023-05-29T10:18:24;102026.63;;;16.16;98.11
1736;BME280;865;53.672;10.250;2023-05-29T10:20:52;102023.75;;;15.86;85.82
1736;BME280;865;53.672;10.250;2023-05-29T10:23:25;102029.44;;;15.65;87.22
1736;BME280;865;53.672;10.250;2023-05-29T10:25:54;102013.09;;;15.92;91.23
1736;BME280;865;53.672;10.250;2023-05-29T10:28:23;102000.50;;;16.07;88.25
1736;BME280;865;53.672;10.250;2023-05-29T10:30:55;102002.28;;;16.44;94.45
1736;BME280;865;53.672;10.250;2023-05-29T10:34:22;102010.09;;;15.67;87.51
1736;BME280;865;53.672;10.250;2023-05-29T10:36:35;102001.16;;;15.76;96.21
1736;BME280;865;53.672;10.250;2023-05-29T10:39:04;102003.19;;;15.62;98.75
1736;BME280;865;53.672;10.250;2023-05-29T10:41:31;102000.28;;;15.32;99.21
1736;BME280;865;53.672;10.250;2023-05-29T10:47:02;102007.56;;;16.05;94.39
1736;BME280;865;53.672;10.250;2023-05-29T10:49:29;102007.13;;;16.23;100.00
1736;BME280;865;53.672;10.250;2023-05-29T10:51:57;102003.34;;;16.35;100.00
1736;BME280;865;53.672;10.250;2023-05-29T10:54:25;101999.03;;;16.68;90.82
1736;BME280;865;53.672;10.250;2023-05-29T10:57:00;101997.72;;;16.86;91.12
1736;BME280;865;53.672;10.250;2023-05-29T10:59:27;101997.22;;;16.36;78.85
1736;BME280;865;53.672;10.250;2023-05-29T11:01:55;101989.69;;;16.19;88.59
1736;BME280;865;53.672;10.250;2023-05-29T11:06:53;101988.03;;;16.51;94.40
1736;BME280;865;53.672;10.250;2023-05-29T11:09:36;101984.13;;;16.67;84.57
1736;BME280;865;53.672;10.250;2023-05-29T11:12:23;101980.72;;;16.98;87.42
1736;BME280;865;53.672;10.250;2023-05-29T11:15:08;101975.22;;;16.73;79.12
1736;BME280;865;53.672;10.250;2023-05-29T11:20:16;101983.50;;;16.93;77.29
1736;BME280;865;53.672;10.250;2023-05-29T11:25:27;101979.09;;;16.94;87.30
1736;BME280;865;53.672;10.250;2023-05-29T11:27:54;101976.03;;;17.11;79.13
1736;BME280;865;53.672;10.250;2023-05-29T11:30:21;101978.84;;;17.03;90.57
1736;BME280;865;53.672;10.250;2023-05-29T11:32:48;101972.78;;;17.32;81.51
1736;BME280;865;53.672;10.250;2023-05-29T11:35:17;101960.97;;;17.45;79.04
1736;BME280;865;53.672;10.250;2023-05-29T11:37:45;101971.19;;;16.58;92.85
1736;BME280;865;53.672;10.250;2023-05-29T11:40:13;101967.72;;;16.92;82.01
1736;BME280;865;53.672;10.250;2023-05-29T11:42:45;101966.00;;;17.23;75.27
1736;BME280;865;53.672;10.250;2023-05-29T11:45:20;101971.59;;;17.11;77.34
1736;BME280;865;53.672;10.250;2023-05-29T11:47:58;101969.56;;;17.21;70.21
1736;BME280;865;53.672;10.250;2023-05-29T11:50:29;101980.13;;;16.88;70.68
1736;BME280;865;53.672;10.250;2023-05-29T11:52:57;101970.84;;;17.39;76.57
1736;BME280;865;53.672;10.250;2023-05-29T11:55:27;101961.06;;;17.42;75.13
1736;BME280;865;53.672;10.250;2023-05-29T11:57:59;101966.28;;;17.44;71.78
1736;BME280;865;53.672;10.250;2023-05-29T12:00:32;101970.91;;;17.37;70.52
1736;BME280;865;53.672;10.250;2023-05-29T12:02:59;101960.28;;;17.68;70.37
1736;BME280;865;53.672;10.250;2023-05-29T12:05:31;101961.94;;;18.02;69.26
1736;BME280;865;53.672;10.250;2023-05-29T12:07:58;101967.81;;;17.52;67.62
1736;BME280;865;53.672;10.250;2023-05-29T12:10:28;101974.81;;;18.13;64.78
1736;BME280;865;53.672;10.250;2023-05-29T12:12:57;101968.72;;;18.37;61.67
1736;BME280;865;53.672;10.250;2023-05-29T12:15:24;101965.84;;;18.45;69.09
1736;BME280;865;53.672;10.250;2023-05-29T12:17:52;101967.34;;;17.68;65.86
1736;BME280;865;53.672;10.250;2023-05-29T12:20:23;101966.94;;;17.52;68.75
1736;BME280;865;53.672;10.250;2023-05-29T12:22:52;101962.31;;;17.90;66.10
1736;BME280;865;53.672;10.250;2023-05-29T12:25:20;101968.06;;;17.43;67.41
1736;BME280;865;53.672;10.250;2023-05-29T12:27:47;101965.13;;;17.84;70.09
1736;BME280;865;53.672;10.250;2023-05-29T12:32:58;101949.19;;;18.43;66.26
1736;BME280;865;53.672;10.250;2023-05-29T12:35:28;101959.84;;;18.66;60.70
1736;BME280;865;53.672;10.250;2023-05-29T12:38:00;101959.50;;;18.51;68.77
1736;BME280;865;53.672;10.250;2023-05-29T12:40:28;101950.19;;;18.12;60.59
1736;BME280;865;53.672;10.250;2023-05-29T12:43:06;101947.59;;;18.37;60.04
1736;BME280;865;53.672;10.250;2023-05-29T12:45:35;101945.59;;;18.44;59.46
1736;BME280;865;53.672;10.250;2023-05-29T12:48:05;101945.38;;;18.52;64.12
1736;BME280;865;53.672;10.250;2023-05-29T12:50:35;101939.38;;;17.92;62.62
1736;BME280;865;53.672;10.250;2023-05-29T12:53:05;101941.84;;;17.96;61.91
1736;BME280;865;53.672;10.250;2023-05-29T12:55:34;101931.16;;;17.71;66.83
1736;BME280;865;53.672;10.250;2023-05-29T12:58:07;101930.88;;;17.52;64.64
1736;BME280;865;53.672;10.250;2023-05-29T13:00:35;101933.44;;;17.85;61.89
1736;BME280;865;53.672;10.250;2023-05-29T13:03:02;101927.09;;;17.91;65.32
1736;BME280;865;53.672;10.250;2023-05-29T13:05:29;101925.34;;;18.18;59.50
1736;BME280;865;53.672;10.250;2023-05-29T13:07:57;101924.41;;;18.20;59.04
1736;BME280;865;53.672;10.250;2023-05-29T13:10:24;101926.63;;;18.33;57.35
1736;BME280;865;53.672;10.250;2023-05-29T13:12:52;101923.50;;;18.73;58.78
1736;BME280;865;53.672;10.250;2023-05-29T13:15:22;101920.53;;;19.07;58.72
1736;BME280;865;53.672;10.250;2023-05-29T13:17:49;101919.72;;;19.05;60.81
1736;BME280;865;53.672;10.250;2023-05-29T13:20:17;101921.81;;;19.21;55.22
1736;BME280;865;53.672;10.250;2023-05-29T13:22:44;101922.25;;;19.08;52.92
1736;BME280;865;53.672;10.250;2023-05-29T13:25:13;101924.84;;;18.60;51.80
1736;BME280;865;53.672;10.250;2023-05-29T13:27:44;101924.34;;;19.24;53.44
1736;BME280;865;53.672;10.250;2023-05-29T13:30:13;101923.25;;;19.29;50.30
1736;BME280;865;53.672;10.250;2023-05-29T13:32:40;101923.38;;;19.26;49.38